SADR31 MDSD 251900Z
METAR
METAR MDPP 251900Z 09015KT 999 FEW025 33/25 Q1014=
METAR MDST 251900Z 11015KT 9999 FEW028 33/21 Q1015 NOSIG=
METAR MDPC 251900Z 09009KT 9999 FEW024 30/24 Q1016=
METAR MDBH 251900Z 13012KT 9999 FEW022 31/24 Q1017=
METAR MDJB 251900Z 18010KT 9999 SCT025 SCT300 32/23 Q1016=
METAR MDSD 251900Z 16008KT 9999 FEW025 32/23 Q1015=
METAR MDLR 251900Z 09008KT 9999 SCT020 32/23 Q1016=
METAR MDCY 251900Z 15010KT 9999 FEW020 32/26 Q1015=
METAR MDAB 251900Z 12010KT 9999 FEW020 32/26 Q1015=